createdAt,value
2018-09-01T00:00:28.699Z,95284.69
2018-09-01T00:02:55.055Z,95291.98
2018-09-01T00:05:21.413Z,95288.88
2018-09-01T00:07:47.805Z,95288.98
2018-09-01T00:10:14.202Z,95281.02
2018-09-01T00:12:40.696Z,95284.64
2018-09-01T00:15:07.126Z,95290.77
2018-09-01T00:17:33.529Z,95296.52
2018-09-01T00:19:59.884Z,95294.54
2018-09-01T00:22:26.291Z,95295.69
2018-09-01T00:24:52.656Z,95296.95
2018-09-01T00:27:19.077Z,95299.65
2018-09-01T00:29:45.464Z,95302.37
2018-09-01T00:32:11.837Z,95299.23
2018-09-01T00:34:38.216Z,95303.00
2018-09-01T00:37:04.615Z,95299.64
2018-09-01T00:39:30.962Z,95310.80
2018-09-01T00:41:57.352Z,95301.48
2018-09-01T00:44:23.705Z,95304.18
2018-09-01T00:46:50.111Z,95299.67
2018-09-01T00:49:16.477Z,95302.72
2018-09-01T00:51:42.861Z,95302.31
2018-09-01T00:54:09.228Z,95302.66
2018-09-01T00:56:35.642Z,95300.91
2018-09-01T00:59:01.983Z,95301.94
2018-09-01T01:01:28.375Z,95306.12
2018-09-01T01:03:54.745Z,95299.91
2018-09-01T01:06:21.241Z,95302.96
2018-09-01T01:08:47.611Z,95300.33
2018-09-01T01:11:14.003Z,95309.95
2018-09-01T01:13:40.358Z,95305.02
2018-09-01T01:16:06.766Z,95300.31
2018-09-01T01:18:33.123Z,95310.73
2018-09-01T01:20:59.528Z,95310.02
2018-09-01T01:23:25.887Z,95302.87
2018-09-01T01:25:52.289Z,95307.27
2018-09-01T01:28:18.671Z,95302.28
2018-09-01T01:30:45.027Z,95296.66
2018-09-01T01:33:11.410Z,95301.68
2018-09-01T01:35:37.773Z,95299.13
2018-09-01T01:38:05.147Z,95307.64
2018-09-01T01:40:31.507Z,95306.47
2018-09-01T01:42:57.868Z,95306.28
2018-09-01T01:45:24.216Z,95301.48
2018-09-01T01:47:50.649Z,95308.92
2018-09-01T01:50:17.100Z,95299.36
2018-09-01T01:52:43.462Z,95298.27
2018-09-01T01:55:09.859Z,95298.91
2018-09-01T01:57:36.331Z,95296.08
2018-09-01T02:00:02.764Z,95292.62
2018-09-01T02:02:29.182Z,95294.08
2018-09-01T02:04:55.527Z,95298.33
2018-09-01T02:07:21.932Z,95298.91
2018-09-01T02:09:48.291Z,95300.66
2018-09-01T02:12:14.800Z,95299.78
2018-09-01T02:14:41.157Z,95297.09
2018-09-01T02:17:07.595Z,95297.44
2018-09-01T02:19:34.002Z,95297.75
2018-09-01T02:22:00.343Z,95291.23
2018-09-01T02:24:26.772Z,95293.23
2018-09-01T02:26:53.160Z,95295.52
2018-09-01T02:31:51.911Z,95298.45
2018-09-01T02:34:18.252Z,95298.56
2018-09-01T02:36:44.638Z,95293.77
2018-09-01T02:39:11.089Z,95293.83
2018-09-01T02:41:37.470Z,95297.70
2018-09-01T02:44:03.824Z,95291.95
2018-09-01T02:46:30.191Z,95292.95
2018-09-01T02:48:56.590Z,95288.84
2018-09-01T02:51:22.939Z,95288.61
2018-09-01T02:53:49.397Z,95294.48
2018-09-01T02:56:15.747Z,95292.00
2018-09-01T02:58:42.316Z,95291.60
2018-09-01T03:01:08.666Z,95294.58
2018-09-01T03:03:35.078Z,95290.19
2018-09-01T03:06:01.431Z,95296.06
2018-09-01T03:08:27.866Z,95293.91
2018-09-01T03:10:54.229Z,95298.02
2018-09-01T03:13:20.628Z,95296.59
2018-09-01T03:15:47.015Z,95293.30
2018-09-01T03:18:13.427Z,95296.41
2018-09-01T03:20:39.843Z,95296.05
2018-09-01T03:23:06.297Z,95297.00
2018-09-01T03:25:36.664Z,95305.02
2018-09-01T03:28:03.020Z,95299.59
2018-09-01T03:30:29.424Z,95303.04
2018-09-01T03:32:55.780Z,95308.95
2018-09-01T03:35:22.193Z,95310.27
2018-09-01T03:37:48.546Z,95308.91
2018-09-01T03:40:14.921Z,95322.35
2018-09-01T03:42:41.348Z,95318.71
2018-09-01T03:45:07.687Z,95321.70
2018-09-01T03:47:34.098Z,95320.47
2018-09-01T03:50:00.450Z,95326.63
2018-09-01T03:52:26.825Z,95324.98
2018-09-01T03:54:53.199Z,95330.43
2018-09-01T03:57:19.557Z,95328.80
2018-09-01T03:59:45.968Z,95332.29
2018-09-01T04:02:12.360Z,95333.09
2018-09-01T04:04:38.814Z,95334.05
2018-09-01T04:07:05.178Z,95335.33
2018-09-01T04:09:31.590Z,95342.61
2018-09-01T04:11:57.919Z,95343.48
2018-09-01T04:14:24.296Z,95336.67
2018-09-01T04:16:50.655Z,95339.53
2018-09-01T04:19:17.012Z,95341.37
2018-09-01T04:21:43.427Z,95343.13
2018-09-01T04:24:09.770Z,95342.98
2018-09-01T04:26:36.112Z,95340.16
2018-09-01T04:29:02.502Z,95345.09
2018-09-01T04:31:28.875Z,95346.61
2018-09-01T04:33:55.210Z,95348.95
2018-09-01T04:36:21.614Z,95343.70
2018-09-01T04:38:47.972Z,95344.84
2018-09-01T04:41:14.357Z,95346.31
2018-09-01T04:43:40.680Z,95346.98
2018-09-01T04:46:07.056Z,95342.88
2018-09-01T04:48:33.453Z,95346.38
2018-09-01T04:50:59.809Z,95341.69
2018-09-01T04:53:26.144Z,95345.34
2018-09-01T04:55:52.520Z,95340.94
2018-09-01T04:58:18.839Z,95339.70
2018-09-01T05:00:45.258Z,95342.80
2018-09-01T05:03:11.611Z,95335.77
2018-09-01T05:05:38.004Z,95334.00
2018-09-01T05:08:04.331Z,95334.58
2018-09-01T05:10:30.668Z,95340.05
2018-09-01T05:12:57.077Z,95335.12
2018-09-01T05:15:23.698Z,95332.88
2018-09-01T05:17:50.069Z,95327.30
2018-09-01T05:20:16.415Z,95326.28
2018-09-01T05:22:42.743Z,95321.84
2018-09-01T05:25:09.076Z,95323.88
2018-09-01T05:27:35.456Z,95326.77
2018-09-01T05:30:01.791Z,95328.14
2018-09-01T05:32:28.157Z,95331.64
2018-09-01T05:34:54.480Z,95329.61
2018-09-01T05:37:20.881Z,95332.08
2018-09-01T05:39:47.354Z,95325.74
2018-09-01T05:42:13.883Z,95330.03
2018-09-01T05:44:40.249Z,95328.08
2018-09-01T05:47:06.648Z,95329.16
2018-09-01T05:49:33.049Z,95331.50
2018-09-01T05:51:59.408Z,95323.61
2018-09-01T05:54:25.857Z,95323.86
2018-09-01T05:56:52.184Z,95320.95
2018-09-01T05:59:18.564Z,95320.16
2018-09-01T06:01:44.934Z,95324.52
2018-09-01T06:04:11.312Z,95322.77
2018-09-01T06:06:37.769Z,95327.41
2018-09-01T06:09:04.096Z,95326.45
2018-09-01T06:11:30.447Z,95329.34
2018-09-01T06:13:56.831Z,95332.80
2018-09-01T06:16:23.218Z,95331.87
2018-09-01T06:18:49.550Z,95334.09
2018-09-01T06:21:15.928Z,95330.16
2018-09-01T06:23:42.397Z,95335.44
2018-09-01T06:26:09.030Z,95331.87
2018-09-01T06:28:35.505Z,95334.04
2018-09-01T06:31:01.855Z,95339.16
2018-09-01T06:33:28.234Z,95335.66
2018-09-01T06:35:54.751Z,95334.92
2018-09-01T06:38:21.100Z,95337.55
2018-09-01T06:40:47.556Z,95335.84
2018-09-01T06:43:13.880Z,95347.78
2018-09-01T06:45:40.285Z,95344.23
2018-09-01T06:48:06.724Z,95346.35
2018-09-01T06:50:33.110Z,95349.30
2018-09-01T06:52:59.448Z,95342.70
2018-09-01T06:55:25.943Z,95347.95
2018-09-01T06:57:52.319Z,95343.52
2018-09-01T07:00:18.643Z,95342.70
2018-09-01T07:02:44.971Z,95344.30
2018-09-01T07:05:11.489Z,95345.64
2018-09-01T07:07:37.962Z,95345.86
2018-09-01T07:10:04.308Z,95343.58
2018-09-01T07:12:30.664Z,95349.58
2018-09-01T07:14:57.001Z,95349.33
2018-09-01T07:17:23.368Z,95350.98
2018-09-01T07:19:49.697Z,95353.04
2018-09-01T07:22:16.048Z,95357.19
2018-09-01T07:24:42.393Z,95350.67
2018-09-01T07:27:08.750Z,95355.07
2018-09-01T07:29:35.125Z,95354.97
2018-09-01T07:32:01.455Z,95351.41
2018-09-01T07:34:27.767Z,95350.13
2018-09-01T07:36:54.107Z,95350.38
2018-09-01T07:39:20.479Z,95345.53
2018-09-01T07:41:46.836Z,95348.89
2018-09-01T07:44:13.169Z,95340.20
2018-09-01T07:46:39.536Z,95343.20
2018-09-01T07:49:06.091Z,95344.65
2018-09-01T07:51:32.425Z,95340.69
2018-09-01T07:53:58.820Z,95346.73
2018-09-01T07:56:25.141Z,95341.32
2018-09-01T07:58:51.489Z,95342.50
2018-09-01T08:01:17.820Z,95337.14
2018-09-01T08:03:44.315Z,95337.03
2018-09-01T08:06:10.667Z,95332.73
2018-09-01T08:08:36.996Z,95333.78
2018-09-01T08:11:03.347Z,95335.84
2018-09-01T08:13:29.739Z,95333.94
2018-09-01T08:15:56.190Z,95330.59
2018-09-01T08:18:22.515Z,95328.16
2018-09-01T08:20:48.846Z,95327.01
2018-09-01T08:23:15.255Z,95330.50
2018-09-01T08:25:41.597Z,95328.67
2018-09-01T08:28:07.971Z,95320.92
2018-09-01T08:30:34.291Z,95329.45
2018-09-01T08:33:00.631Z,95319.05
2018-09-01T08:35:27.082Z,95318.58
2018-09-01T08:37:53.530Z,95313.24
2018-09-01T08:40:19.878Z,95314.86
2018-09-01T08:42:46.233Z,95318.63
2018-09-01T08:45:12.596Z,95319.78
2018-09-01T08:47:38.951Z,95318.84
2018-09-01T08:50:05.295Z,95317.41
2018-09-01T08:52:31.620Z,95319.11
2018-09-01T08:54:57.959Z,95317.30
2018-09-01T08:57:24.291Z,95318.95
2018-09-01T08:59:50.616Z,95316.83
2018-09-01T09:02:16.935Z,95309.89
2018-09-01T09:04:43.271Z,95312.75
2018-09-01T09:07:09.627Z,95308.88
2018-09-01T09:09:35.963Z,95301.73
2018-09-01T09:12:02.294Z,95307.67
2018-09-01T09:14:28.653Z,95303.19
2018-09-01T09:16:55.079Z,95308.83
2018-09-01T09:19:21.412Z,95303.95
2018-09-01T09:21:47.787Z,95306.81
2018-09-01T09:24:14.124Z,95307.22
2018-09-01T09:26:40.659Z,95301.47
2018-09-01T09:29:06.992Z,95303.28
2018-09-01T09:31:33.457Z,95298.37
2018-09-01T09:33:59.841Z,95300.59
2018-09-01T09:36:26.177Z,95302.20
2018-09-01T09:38:52.544Z,95304.63
2018-09-01T09:41:18.860Z,95307.67
2018-09-01T09:43:45.191Z,95300.54
2018-09-01T09:46:11.582Z,95300.48
2018-09-01T09:48:37.934Z,95299.52
2018-09-01T09:51:04.264Z,95298.11
2018-09-01T09:53:30.594Z,95301.27
2018-09-01T09:55:56.946Z,95301.38
2018-09-01T09:58:23.355Z,95302.00
2018-09-01T10:00:49.663Z,95308.05
2018-09-01T10:03:16.050Z,95306.76
2018-09-01T10:05:42.556Z,95303.44
2018-09-01T10:08:08.883Z,95301.53
2018-09-01T10:10:35.314Z,95307.16
2018-09-01T10:13:01.639Z,95302.97
2018-09-01T10:15:28.022Z,95299.25
2018-09-01T10:17:54.372Z,95300.75
2018-09-01T10:20:20.801Z,95299.65
2018-09-01T10:22:47.151Z,95296.56
2018-09-01T10:25:13.497Z,95290.04
2018-09-01T10:27:39.889Z,95291.05
2018-09-01T10:30:06.220Z,95288.94
2018-09-01T10:32:32.593Z,95286.67
2018-09-01T10:34:59.032Z,95284.95
2018-09-01T10:37:25.440Z,95278.34
2018-09-01T10:39:51.769Z,95274.08
2018-09-01T10:42:18.145Z,95275.44
2018-09-01T10:44:44.512Z,95272.83
2018-09-01T10:47:10.888Z,95267.87
2018-09-01T10:49:37.296Z,95273.73
2018-09-01T10:52:03.627Z,95272.90
2018-09-01T10:54:29.957Z,95270.16
2018-09-01T10:56:56.395Z,95262.14
2018-09-01T10:59:22.849Z,95254.23
2018-09-01T11:01:49.124Z,95253.53
2018-09-01T11:04:15.494Z,95254.14
2018-09-01T11:06:41.876Z,95256.23
2018-09-01T11:09:08.285Z,95251.52
2018-09-01T11:11:34.618Z,95252.61
2018-09-01T11:14:00.988Z,95253.52
2018-09-01T11:16:27.341Z,95257.88
2018-09-01T11:18:53.727Z,95255.55
2018-09-01T11:21:20.108Z,95260.53
2018-09-01T11:23:46.480Z,95253.17
2018-09-01T11:26:12.856Z,95260.87
2018-09-01T11:28:39.231Z,95253.88
2018-09-01T11:31:05.556Z,95264.85
2018-09-01T11:33:31.924Z,95258.44
2018-09-01T11:35:58.243Z,95254.44
2018-09-01T11:38:24.571Z,95258.73
2018-09-01T11:40:50.904Z,95255.65
2018-09-01T11:43:17.286Z,95251.03
2018-09-01T11:45:43.667Z,95246.27
2018-09-01T11:48:10.051Z,95246.33
2018-09-01T11:50:36.384Z,95247.97
2018-09-01T11:53:02.794Z,95231.94
2018-09-01T11:55:29.187Z,95231.80
2018-09-01T11:57:55.571Z,95231.73
2018-09-01T12:00:21.943Z,95226.03
2018-09-01T12:02:48.340Z,95230.59
2018-09-01T12:05:14.722Z,95225.41
2018-09-01T12:07:41.129Z,95227.94
2018-09-01T12:10:07.460Z,95222.97
2018-09-01T12:12:33.840Z,95216.97
2018-09-01T12:15:00.188Z,95216.97
2018-09-01T12:17:26.553Z,95210.84
2018-09-01T12:19:52.886Z,95212.61
2018-09-01T12:22:19.305Z,95215.41
2018-09-01T12:24:45.621Z,95212.34
2018-09-01T12:27:12.021Z,95217.58
2018-09-01T12:29:38.410Z,95205.81
2018-09-01T12:32:04.760Z,95210.05
2018-09-01T12:34:31.192Z,95207.84
2018-09-01T12:36:57.633Z,95203.95
2018-09-01T12:39:24.024Z,95202.54
2018-09-01T12:41:50.416Z,95204.72
2018-09-01T12:44:16.772Z,95206.69
2018-09-01T12:46:43.162Z,95205.39
2018-09-01T12:49:09.513Z,95210.09
2018-09-01T12:51:35.947Z,95206.98
2018-09-01T12:54:02.328Z,95199.21
2018-09-01T12:56:28.684Z,95203.03
2018-09-01T12:58:55.065Z,95204.24
2018-09-01T13:01:21.398Z,95200.30
2018-09-01T13:03:47.736Z,95200.23
2018-09-01T13:06:14.077Z,95196.55
2018-09-01T13:08:40.519Z,95199.02
2018-09-01T13:11:06.878Z,95200.73
2018-09-01T13:13:33.275Z,95191.67
2018-09-01T13:15:59.667Z,95194.58
2018-09-01T13:18:26.007Z,95188.98
2018-09-01T13:20:52.366Z,95190.22
2018-09-01T13:23:18.751Z,95182.80
2018-09-01T13:25:45.079Z,95182.75
2018-09-01T13:28:11.452Z,95187.36
2018-09-01T13:30:37.856Z,95185.59
2018-09-01T13:33:04.200Z,95186.42
2018-09-01T13:35:30.692Z,95184.23
2018-09-01T13:37:57.065Z,95185.47
2018-09-01T13:40:23.396Z,95187.97
2018-09-01T13:42:49.778Z,95180.70
2018-09-01T13:45:16.183Z,95176.73
2018-09-01T13:47:42.562Z,95177.96
2018-09-01T13:50:08.917Z,95177.84
2018-09-01T13:52:35.267Z,95178.31
2018-09-01T13:55:01.595Z,95176.45
2018-09-01T13:57:28.080Z,95172.52
2018-09-01T13:59:54.319Z,95173.27
2018-09-01T14:02:20.789Z,95181.05
2018-09-01T14:04:47.140Z,95177.98
2018-09-01T14:07:13.510Z,95176.27
2018-09-01T14:09:39.840Z,95181.05
2018-09-01T14:12:06.184Z,95178.45
2018-09-01T14:14:32.538Z,95180.95
2018-09-01T14:16:58.871Z,95181.91
2018-09-01T14:19:25.223Z,95185.95
2018-09-01T14:21:51.702Z,95183.77
2018-09-01T14:24:18.118Z,95181.91
2018-09-01T14:26:44.471Z,95185.39
2018-09-01T14:29:10.816Z,95178.03
2018-09-01T14:31:37.226Z,95183.03
2018-09-01T14:34:03.559Z,95178.31
2018-09-01T14:36:30.113Z,95180.09
2018-09-01T14:38:56.324Z,95178.85
2018-09-01T14:41:22.660Z,95173.46
2018-09-01T14:43:49.017Z,95172.73
2018-09-01T14:46:15.373Z,95173.88
2018-09-01T14:48:41.748Z,95178.52
2018-09-01T14:51:08.109Z,95178.17
2018-09-01T14:53:34.443Z,95185.88
2018-09-01T14:56:00.781Z,95185.05
2018-09-01T14:58:27.151Z,95182.81
2018-09-01T15:00:53.507Z,95183.23
2018-09-01T15:03:19.870Z,95182.75
2018-09-01T15:05:46.225Z,95181.11
2018-09-01T15:08:12.557Z,95176.13
2018-09-01T15:10:38.927Z,95176.69
2018-09-01T15:13:05.254Z,95175.98
2018-09-01T15:15:31.623Z,95182.47
2018-09-01T15:17:58.092Z,95183.23
2018-09-01T15:20:24.416Z,95182.28
2018-09-01T15:22:50.812Z,95185.34
2018-09-01T15:25:17.143Z,95182.66
2018-09-01T15:27:43.480Z,95184.31
2018-09-01T15:30:09.847Z,95184.87
2018-09-01T15:32:36.316Z,95188.82
2018-09-01T15:35:02.667Z,95186.08
2018-09-01T15:37:29.044Z,95182.60
2018-09-01T15:39:55.437Z,95185.07
2018-09-01T15:42:21.800Z,95190.84
2018-09-01T15:44:48.262Z,95182.28
2018-09-01T15:47:14.606Z,95187.84
2018-09-01T15:49:40.935Z,95192.08
2018-09-01T15:52:07.331Z,95185.25
2018-09-01T15:54:33.663Z,95189.08
2018-09-01T15:56:59.996Z,95186.96
2018-09-01T15:59:26.317Z,95191.20
2018-09-01T16:01:52.652Z,95190.17
2018-09-01T16:04:19.108Z,95199.18
2018-09-01T16:06:45.544Z,95197.13
2018-09-01T16:09:11.932Z,95199.66
2018-09-01T16:11:38.262Z,95204.48
2018-09-01T16:14:04.748Z,95201.06
2018-09-01T16:16:31.084Z,95204.07
2018-09-01T16:18:57.416Z,95201.48
2018-09-01T16:21:23.790Z,95201.57
2018-09-01T16:23:50.130Z,95198.98
2018-09-01T16:26:16.528Z,95195.98
2018-09-01T16:28:42.863Z,95196.86
2018-09-01T16:31:09.209Z,95197.45
2018-09-01T16:33:35.615Z,95198.28
2018-09-01T16:36:01.960Z,95203.45
2018-09-01T16:38:28.331Z,95202.64
2018-09-01T16:40:54.684Z,95196.91
2018-09-01T16:43:21.035Z,95200.26
2018-09-01T16:45:47.416Z,95205.38
2018-09-01T16:48:13.819Z,95199.17
2018-09-01T16:50:40.205Z,95200.13
2018-09-01T16:53:06.627Z,95202.23
2018-09-01T16:55:33.022Z,95207.48
2018-09-01T16:57:59.376Z,95211.83
2018-09-01T17:00:25.749Z,95212.72
2018-09-01T17:02:52.111Z,95213.69
2018-09-01T17:05:18.472Z,95211.58
2018-09-01T17:07:44.852Z,95213.08
2018-09-01T17:10:11.280Z,95221.73
2018-09-01T17:12:37.615Z,95214.55
2018-09-01T17:15:03.970Z,95217.30
2018-09-01T17:17:30.312Z,95223.36
2018-09-01T17:19:56.682Z,95222.23
2018-09-01T17:22:23.128Z,95229.77
2018-09-01T17:24:49.456Z,95230.83
2018-09-01T17:27:15.785Z,95232.13
2018-09-01T17:29:42.208Z,95236.48
2018-09-01T17:32:08.549Z,95234.10
2018-09-01T17:34:34.960Z,95248.91
2018-09-01T17:37:01.348Z,95251.73
2018-09-01T17:39:27.687Z,95248.67
2018-09-01T17:41:54.052Z,95255.14
2018-09-01T17:44:20.375Z,95263.06
2018-09-01T17:46:46.751Z,95262.23
2018-09-01T17:49:13.101Z,95259.77
2018-09-01T17:51:39.478Z,95263.33
2018-09-01T17:54:05.829Z,95266.92
2018-09-01T17:56:32.223Z,95268.69
2018-09-01T17:58:58.590Z,95265.92
2018-09-01T18:01:24.976Z,95271.83
2018-09-01T18:03:51.365Z,95264.12
2018-09-01T18:06:18.350Z,95271.36
2018-09-01T18:08:45.553Z,95277.75
2018-09-01T18:11:11.916Z,95278.42
2018-09-01T18:13:38.285Z,95280.28
2018-09-01T18:16:04.635Z,95282.19
2018-09-01T18:18:30.984Z,95280.04
2018-09-01T18:20:57.368Z,95279.77
2018-09-01T18:23:23.691Z,95277.92
2018-09-01T18:25:50.035Z,95284.59
2018-09-01T18:28:16.424Z,95287.75
2018-09-01T18:30:42.822Z,95288.07
2018-09-01T18:33:09.165Z,95290.25
2018-09-01T18:35:35.510Z,95292.63
2018-09-01T18:38:01.916Z,95294.48
2018-09-01T18:40:28.257Z,95294.16
2018-09-01T18:42:54.591Z,95290.69
2018-09-01T18:45:20.937Z,95290.89
2018-09-01T18:47:47.332Z,95293.59
2018-09-01T18:50:13.729Z,95296.53
2018-09-01T18:52:40.183Z,95299.74
2018-09-01T18:55:06.566Z,95304.50
2018-09-01T18:57:32.979Z,95307.50
2018-09-01T18:59:59.329Z,95312.68
2018-09-01T19:02:25.685Z,95310.36
2018-09-01T19:04:52.133Z,95316.33
2018-09-01T19:07:18.675Z,95308.70
2018-09-01T19:09:45.039Z,95309.53
2018-09-01T19:12:11.473Z,95308.91
2018-09-01T19:14:37.880Z,95317.47
2018-09-01T19:17:04.237Z,95313.52
2018-09-01T19:19:30.577Z,95317.92
2018-09-01T19:21:56.940Z,95323.25
2018-09-01T19:24:23.296Z,95322.75
2018-09-01T19:26:49.639Z,95321.39
2018-09-01T19:29:15.988Z,95316.84
2018-09-01T19:31:42.319Z,95317.00
2018-09-01T19:34:09.470Z,95318.91
2018-09-01T19:36:35.827Z,95312.91
2018-09-01T19:39:02.367Z,95311.94
2018-09-01T19:41:28.731Z,95311.14
2018-09-01T19:43:55.065Z,95311.61
2018-09-01T19:46:21.474Z,95312.44
2018-09-01T19:48:47.830Z,95315.55
2018-09-01T19:51:14.235Z,95312.92
2018-09-01T19:53:40.579Z,95314.71
2018-09-01T19:56:06.907Z,95312.92
2018-09-01T19:58:33.246Z,95307.95
2018-09-01T20:00:59.588Z,95309.03
2018-09-01T20:03:25.947Z,95304.05
2018-09-01T20:05:52.264Z,95303.91
2018-09-01T20:08:18.601Z,95306.08
2018-09-01T20:10:44.988Z,95300.70
2018-09-01T20:13:11.322Z,95303.02
2018-09-01T20:15:37.705Z,95302.77
2018-09-01T20:18:04.035Z,95299.72
2018-09-01T20:20:30.366Z,95305.77
2018-09-01T20:22:56.695Z,95310.42
2018-09-01T20:25:23.187Z,95308.14
2018-09-01T20:27:49.424Z,95303.74
2018-09-01T20:30:15.832Z,95302.77
2018-09-01T20:32:42.155Z,95306.70
2018-09-01T20:35:08.500Z,95306.17
2018-09-01T20:37:34.838Z,95304.63
2018-09-01T20:40:01.223Z,95309.28
2018-09-01T20:42:27.579Z,95309.18
2018-09-01T20:44:53.955Z,95309.34
2018-09-01T20:47:20.811Z,95302.45
2018-09-01T20:49:47.147Z,95302.28
2018-09-01T20:52:13.477Z,95302.61
2018-09-01T20:54:39.823Z,95306.73
2018-09-01T20:57:06.175Z,95304.46
2018-09-01T20:59:32.503Z,95302.66
2018-09-01T21:01:58.823Z,95304.57
2018-09-01T21:04:25.305Z,95298.83
2018-09-01T21:06:51.606Z,95304.05
2018-09-01T21:09:17.939Z,95303.02
2018-09-01T21:11:44.265Z,95302.61
2018-09-01T21:14:10.604Z,95306.59
2018-09-01T21:16:36.980Z,95304.01
2018-09-01T21:19:03.326Z,95298.05
2018-09-01T21:21:29.679Z,95297.60
2018-09-01T21:23:56.022Z,95299.03
2018-09-01T21:26:22.388Z,95298.42
2018-09-01T21:28:48.746Z,95298.35
2018-09-01T21:31:15.066Z,95293.56
2018-09-01T21:33:42.900Z,95292.14
2018-09-01T21:36:09.231Z,95291.53
2018-09-01T21:38:35.570Z,95289.94
2018-09-01T21:41:01.993Z,95289.58
2018-09-01T21:43:28.343Z,95287.96
2018-09-01T21:45:54.687Z,95287.12
2018-09-01T21:48:21.036Z,95286.34
2018-09-01T21:50:47.385Z,95285.05
2018-09-01T21:53:13.718Z,95286.92
2018-09-01T21:55:40.072Z,95285.36
2018-09-01T21:58:06.429Z,95291.27
2018-09-01T22:00:32.757Z,95290.06
2018-09-01T22:02:59.110Z,95287.28
2018-09-01T22:05:25.485Z,95288.58
2018-09-01T22:07:51.830Z,95289.08
2018-09-01T22:10:18.215Z,95291.41
2018-09-01T22:12:44.586Z,95288.67
2018-09-01T22:15:10.939Z,95282.72
2018-09-01T22:17:37.295Z,95293.05
2018-09-01T22:20:03.672Z,95291.59
2018-09-01T22:22:30.066Z,95292.13
2018-09-01T22:24:56.432Z,95293.20
2018-09-01T22:27:22.800Z,95294.01
2018-09-01T22:29:49.130Z,95291.70
2018-09-01T22:32:15.516Z,95285.95
2018-09-01T22:34:41.920Z,95291.02
2018-09-01T22:37:08.272Z,95289.88
2018-09-01T22:39:34.644Z,95295.86
2018-09-01T22:42:01.051Z,95303.00
2018-09-01T22:44:27.384Z,95294.84
2018-09-01T22:46:53.743Z,95293.13
2018-09-01T22:49:20.088Z,95295.44
2018-09-01T22:51:46.477Z,95292.72
2018-09-01T22:54:12.823Z,95299.02
2018-09-01T22:56:39.203Z,95302.89
2018-09-01T22:59:05.526Z,95308.36
2018-09-01T23:01:31.893Z,95305.53
2018-09-01T23:03:58.263Z,95302.98
2018-09-01T23:06:24.588Z,95305.45
2018-09-01T23:08:50.960Z,95299.67
2018-09-01T23:11:17.299Z,95296.05
2018-09-01T23:13:43.687Z,95296.08
2018-09-01T23:16:10.024Z,95295.66
2018-09-01T23:18:36.484Z,95302.53
2018-09-01T23:21:02.857Z,95295.42
2018-09-01T23:23:29.323Z,95293.35
2018-09-01T23:25:55.694Z,95298.49
2018-09-01T23:28:22.010Z,95297.53
2018-09-01T23:30:48.447Z,95298.27
2018-09-01T23:33:14.789Z,95297.45
2018-09-01T23:35:41.129Z,95299.98
2018-09-01T23:38:07.513Z,95301.02
2018-09-01T23:40:33.904Z,95304.23
2018-09-01T23:43:00.410Z,95306.93
2018-09-01T23:45:26.740Z,95306.30
2018-09-01T23:47:53.268Z,95308.59
2018-09-01T23:50:19.631Z,95299.36
2018-09-01T23:52:45.985Z,95307.11
2018-09-01T23:55:12.320Z,95304.37
2018-09-01T23:57:38.699Z,95299.25
